Time;durP1;ratioP1;P1;durP2;ratioP2;P2;SDS_P1;SDS_P2;PMS_P1;PMS_P2;Temp;Humidity;BMP_temperature;BMP_pressure;BME280_temperature;BME280_humidity;BME280_pressure;Samples;Min_cycle;Max_cycle;Signal;HPM_P1;HPM_P2
2021/11/10 08:22:02;;;;;;;6.35;3.72;;;;;;;;;;6257890;22;20392;-48
2021/11/10 08:24:30;;;;;;;4.90;3.93;;;;;;;;;;6243812;22;20375;-54
2021/11/10 08:26:59;;;;;;;4.90;3.42;;;;;;;;;;6243255;22;20344;-46
2021/11/10 08:29:28;;;;;;;5.17;3.70;;;;;;;;;;6269336;22;20337;-46
2021/11/10 08:31:54;;;;;;;5.22;3.70;;;;;;;;;;6243870;22;20652;-45
2021/11/10 08:34:20;;;;;;;4.63;3.60;;;;;;;;;;6243615;22;20383;-45
2021/11/10 08:36:49;;;;;;;11.50;7.53;;;;;;;;;;6243382;22;20348;-54
2021/11/10 08:39:17;;;;;;;11.13;6.82;;;;;;;;;;6269377;22;20946;-48
2021/11/10 08:41:49;;;;;;;10.48;7.18;;;;;;;;;;6242545;22;20356;-49
2021/11/10 08:44:18;;;;;;;10.83;6.63;;;;;;;;;;6270934;22;20742;-49
2021/11/10 08:46:45;;;;;;;9.30;6.50;;;;;;;;;;6243204;22;20833;-50
2021/11/10 08:49:12;;;;;;;9.90;6.65;;;;;;;;;;6243639;22;20410;-50
2021/11/10 08:51:41;;;;;;;8.83;6.97;;;;;;;;;;6243725;22;20788;-50
2021/11/10 08:54:08;;;;;;;10.48;6.53;;;;;;;;;;6243506;22;20439;-53
2021/11/10 08:56:37;;;;;;;9.57;6.40;;;;;;;;;;6244251;22;20375;-49
2021/11/10 08:59:04;;;;;;;9.88;6.32;;;;;;;;;;6270005;22;20431;-55
2021/11/10 09:01:31;;;;;;;9.45;6.07;;;;;;;;;;6243540;22;20353;-51
2021/11/10 09:03:57;;;;;;;8.47;5.97;;;;;;;;;;6243493;22;20529;-51
2021/11/10 09:06:23;;;;;;;9.02;5.88;;;;;;;;;;6244207;22;20336;-54
2021/11/10 09:08:52;;;;;;;8.00;5.70;;;;;;;;;;6271687;22;20356;-52
2021/11/10 09:11:18;;;;;;;8.03;5.50;;;;;;;;;;6245207;22;20460;-55
2021/11/10 09:13:44;;;;;;;7.97;5.47;;;;;;;;;;6243785;22;20356;-51
2021/11/10 09:16:11;;;;;;;8.40;5.45;;;;;;;;;;6271560;22;20366;-51
2021/11/10 09:18:37;;;;;;;7.75;5.55;;;;;;;;;;6243320;22;20437;-55
2021/11/10 09:21:05;;;;;;;7.32;5.38;;;;;;;;;;6264495;22;20412;-49
2021/11/10 09:23:31;;;;;;;7.88;5.18;;;;;;;;;;6238531;23;20767;-50
2021/11/10 09:25:58;;;;;;;8.85;5.63;;;;;;;;;;6239753;23;20353;-49
2021/11/10 09:28:24;;;;;;;8.23;5.47;;;;;;;;;;6238148;23;20507;-50
2021/11/10 09:30:54;;;;;;;6.80;4.75;;;;;;;;;;6240251;23;20368;-52
2021/11/10 09:33:21;;;;;;;6.65;4.93;;;;;;;;;;6237407;23;20402;-56
2021/11/10 09:35:50;;;;;;;7.00;4.88;;;;;;;;;;6238277;23;20358;-53
2021/11/10 09:38:16;;;;;;;7.80;5.20;;;;;;;;;;6240332;22;20400;-51
2021/11/10 09:40:44;;;;;;;7.43;5.18;;;;;;;;;;6240013;23;20430;-51
2021/11/10 09:43:13;;;;;;;6.95;5.00;;;;;;;;;;6238390;23;20341;-51
2021/11/10 09:45:39;;;;;;;7.30;5.00;;;;;;;;;;6238094;23;20358;-51
2021/11/10 09:48:07;;;;;;;6.77;4.70;;;;;;;;;;6239574;23;20342;-51
2021/11/10 09:50:34;;;;;;;6.38;4.75;;;;;;;;;;6237681;23;20740;-50
2021/11/10 09:53:00;;;;;;;7.03;5.07;;;;;;;;;;6239645;23;20791;-51
2021/11/10 09:55:28;;;;;;;7.00;4.88;;;;;;;;;;6238090;23;20387;-50
2021/11/10 09:57:55;;;;;;;7.27;4.60;;;;;;;;;;6238385;23;20403;-50
2021/11/10 10:00:33;;;;;;;6.75;4.68;;;;;;;;;;6238285;23;20775;-53
2021/11/10 10:03:00;;;;;;;8.10;5.00;;;;;;;;;;6237682;23;20354;-54
2021/11/10 10:05:27;;;;;;;6.60;4.50;;;;;;;;;;6237836;23;20524;-55
2021/11/10 10:07:53;;;;;;;8.45;6.15;;;;;;;;;;6237581;23;20349;-56
2021/11/10 10:10:20;;;;;;;11.55;9.00;;;;;;;;;;6237953;23;20354;-61
2021/11/10 10:12:49;;;;;;;10.95;8.05;;;;;;;;;;6239865;23;20354;-61
2021/11/10 10:15:18;;;;;;;10.43;7.63;;;;;;;;;;6214548;23;20350;-57
2021/11/10 10:17:48;;;;;;;12.18;8.00;;;;;;;;;;6239977;23;20747;-55
2021/11/10 10:20:43;;;;;;;9.23;7.53;;;;;;;;;;6239430;23;20380;-57
2021/11/10 10:23:17;;;;;;;11.00;7.40;;;;;;;;;;6240849;22;20641;-57
2021/11/10 10:25:43;;;;;;;10.85;7.32;;;;;;;;;;6270409;22;20363;-52
2021/11/10 10:28:11;;;;;;;9.85;7.10;;;;;;;;;;6270041;22;20813;-55
2021/11/10 10:30:45;;;;;;;9.68;7.40;;;;;;;;;;6270764;22;20780;-58
2021/11/10 10:33:13;;;;;;;10.50;7.53;;;;;;;;;;6269994;22;20443;-53
2021/11/10 10:35:44;;;;;;;9.25;6.95;;;;;;;;;;6272879;22;20419;-57
2021/11/10 10:38:12;;;;;;;8.75;6.68;;;;;;;;;;6270235;22;20462;-60
2021/11/10 10:40:39;;;;;;;8.27;7.10;;;;;;;;;;6269834;22;20344;-57
2021/11/10 10:43:06;;;;;;;9.35;6.75;;;;;;;;;;6272478;22;20360;-54
2021/11/10 10:45:34;;;;;;;8.38;6.78;;;;;;;;;;6270284;22;20348;-52
2021/11/10 10:48:01;;;;;;;8.48;7.00;;;;;;;;;;6272303;22;20423;-51
2021/11/10 10:50:31;;;;;;;8.63;6.97;;;;;;;;;;6272207;22;20408;-57
2021/11/10 10:53:01;;;;;;;8.77;6.40;;;;;;;;;;6269912;22;20345;-50
2021/11/10 10:55:37;;;;;;;7.88;6.20;;;;;;;;;;6271449;22;20339;-49
2021/11/10 10:58:07;;;;;;;8.02;6.15;;;;;;;;;;6271446;22;20359;-47
2021/11/10 11:00:35;;;;;;;7.38;6.15;;;;;;;;;;6271974;22;20339;-48
2021/11/10 11:03:22;;;;;;;7.60;6.07;;;;;;;;;;6269914;22;20353;-49
2021/11/10 11:05:49;;;;;;;8.52;6.00;;;;;;;;;;6251375;22;20439;-51
2021/11/10 11:08:33;;;;;;;7.43;5.50;;;;;;;;;;6271970;22;20340;-50
2021/11/10 11:11:25;;;;;;;6.97;5.65;;;;;;;;;;6271759;22;20329;-54
2021/11/10 11:13:58;;;;;;;7.25;5.88;;;;;;;;;;6269236;22;20356;-47
2021/11/10 11:16:35;;;;;;;8.63;6.17;;;;;;;;;;6271126;22;20355;-48
2021/11/10 11:19:17;;;;;;;11.95;6.93;;;;;;;;;;6271437;22;20373;-49
2021/11/10 11:21:51;;;;;;;8.80;5.88;;;;;;;;;;6264076;22;20464;-49
2021/11/10 11:24:32;;;;;;;9.52;6.40;;;;;;;;;;6239877;23;20327;-48
2021/11/10 11:27:15;;;;;;;8.32;6.40;;;;;;;;;;6239762;23;20415;-48
2021/11/10 11:29:43;;;;;;;8.88;6.72;;;;;;;;;;6238439;23;20442;-47
2021/11/10 11:32:29;;;;;;;9.57;6.53;;;;;;;;;;6240318;23;20349;-49
2021/11/10 11:34:58;;;;;;;9.70;6.43;;;;;;;;;;6240441;22;20362;-48
2021/11/10 11:37:27;;;;;;;10.40;6.40;;;;;;;;;;6239876;23;20422;-46
2021/11/10 11:39:58;;;;;;;8.75;5.97;;;;;;;;;;6238436;23;20521;-50
2021/11/10 11:42:28;;;;;;;10.88;6.70;;;;;;;;;;6239481;23;20404;-48
2021/11/10 11:44:57;;;;;;;10.73;7.38;;;;;;;;;;6237979;23;20354;-48
2021/11/10 11:47:24;;;;;;;10.57;7.50;;;;;;;;;;6238196;23;20906;-49
2021/11/10 11:49:52;;;;;;;11.52;6.78;;;;;;;;;;6237978;23;20751;-50
2021/11/10 11:52:21;;;;;;;10.18;7.15;;;;;;;;;;6238417;23;20354;-51
2021/11/10 11:54:49;;;;;;;8.50;6.33;;;;;;;;;;6240591;22;20423;-51
2021/11/10 11:57:21;;;;;;;10.45;6.70;;;;;;;;;;6238533;23;20385;-47
2021/11/10 11:59:51;;;;;;;8.85;5.90;;;;;;;;;;6238440;23;20385;-49
2021/11/10 12:02:26;;;;;;;7.27;4.83;;;;;;;;;;6240411;22;20345;-51
2021/11/10 12:04:53;;;;;;;7.28;4.60;;;;;;;;;;6239170;22;20845;-49
2021/11/10 12:07:38;;;;;;;7.70;4.70;;;;;;;;;;6237735;22;20779;-51
2021/11/10 12:10:23;;;;;;;6.22;4.47;;;;;;;;;;6238516;23;20354;-50
2021/11/10 12:13:04;;;;;;;6.13;3.88;;;;;;;;;;6238485;23;20353;-50
2021/11/10 12:15:50;;;;;;;5.68;3.88;;;;;;;;;;6240177;23;20369;-50
2021/11/10 12:18:20;;;;;;;6.47;4.13;;;;;;;;;;6239964;23;20393;-50
2021/11/10 12:20:47;;;;;;;6.55;4.13;;;;;;;;;;6239785;22;20365;-49
2021/11/10 12:23:14;;;;;;;6.37;3.87;;;;;;;;;;6239642;22;20437;-50
2021/11/10 12:25:59;;;;;;;5.82;4.05;;;;;;;;;;6239595;23;20354;-50
2021/11/10 12:28:43;;;;;;;5.18;3.75;;;;;;;;;;6240453;23;20444;-49
2021/11/10 12:31:27;;;;;;;7.20;4.10;;;;;;;;;;6240057;23;20346;-51
2021/11/10 12:33:55;;;;;;;6.30;3.75;;;;;;;;;;6240429;23;20334;-52
2021/11/10 12:36:41;;;;;;;6.15;3.60;;;;;;;;;;6241318;22;20796;-49
2021/11/10 12:39:07;;;;;;;5.93;3.65;;;;;;;;;;6240708;23;20779;-49
2021/11/10 12:41:45;;;;;;;5.28;3.75;;;;;;;;;;6241755;23;20426;-49
2021/11/10 12:44:25;;;;;;;5.23;3.63;;;;;;;;;;6241131;23;20391;-50
2021/11/10 12:46:52;;;;;;;5.47;3.70;;;;;;;;;;6214727;23;20837;-51
2021/11/10 12:49:18;;;;;;;6.40;3.78;;;;;;;;;;6239886;23;20810;-50
2021/11/10 12:51:45;;;;;;;6.35;3.88;;;;;;;;;;6240960;22;20334;-47
2021/11/10 12:54:25;;;;;;;4.88;3.25;;;;;;;;;;6240703;23;20357;-46
2021/11/10 12:56:54;;;;;;;4.40;3.10;;;;;;;;;;6238710;23;20808;-50
2021/11/10 12:59:31;;;;;;;5.72;3.20;;;;;;;;;;6238433;23;20382;-45
2021/11/10 13:02:17;;;;;;;5.50;3.60;;;;;;;;;;6238665;23;20426;-48
2021/11/10 13:04:49;;;;;;;5.20;3.10;;;;;;;;;;6239443;23;20426;-54
2021/11/10 13:07:19;;;;;;;5.25;3.25;;;;;;;;;;6240700;23;20349;-55
2021/11/10 13:09:49;;;;;;;5.55;3.22;;;;;;;;;;6242249;22;20829;-57
2021/11/10 13:12:16;;;;;;;5.43;3.60;;;;;;;;;;6239839;23;20457;-57
2021/11/10 13:14:52;;;;;;;4.68;2.92;;;;;;;;;;6241638;22;20338;-53
2021/11/10 13:17:26;;;;;;;6.20;3.20;;;;;;;;;;6240071;23;20374;-53
2021/11/10 13:19:59;;;;;;;4.47;3.35;;;;;;;;;;6239372;23;20420;-53
2021/11/10 13:22:38;;;;;;;4.47;3.20;;;;;;;;;;6238917;23;20397;-57
2021/11/10 13:25:10;;;;;;;4.30;3.05;;;;;;;;;;6241344;23;20350;-52
2021/11/10 13:27:42;;;;;;;4.07;2.85;;;;;;;;;;6239755;23;20346;-54
2021/11/10 13:30:12;;;;;;;4.00;3.03;;;;;;;;;;6240935;22;20358;-51
2021/11/10 13:32:44;;;;;;;3.70;2.70;;;;;;;;;;6240546;22;20326;-56
2021/11/10 13:35:13;;;;;;;4.05;2.95;;;;;;;;;;6238999;23;20353;-51
2021/11/10 13:37:41;;;;;;;4.53;2.90;;;;;;;;;;6239430;23;20365;-49
2021/11/10 13:40:11;;;;;;;4.72;3.10;;;;;;;;;;6241232;23;20381;-51
2021/11/10 13:42:41;;;;;;;4.00;2.95;;;;;;;;;;6240974;23;20330;-48
2021/11/10 13:45:08;;;;;;;4.25;2.88;;;;;;;;;;6238895;23;20350;-50
2021/11/10 13:47:36;;;;;;;4.50;2.85;;;;;;;;;;6238942;23;20433;-51
2021/11/10 13:50:06;;;;;;;4.47;2.83;;;;;;;;;;6239281;23;20453;-54
2021/11/10 13:52:32;;;;;;;3.95;2.88;;;;;;;;;;6240702;23;20357;-52
2021/11/10 13:55:04;;;;;;;4.15;2.83;;;;;;;;;;6238214;23;20640;-50
2021/11/10 13:57:40;;;;;;;4.32;2.70;;;;;;;;;;6239437;23;20354;-52
2021/11/10 14:00:18;;;;;;;4.47;3.08;;;;;;;;;;6238658;23;20838;-60
2021/11/10 14:02:51;;;;;;;4.47;2.90;;;;;;;;;;6240880;22;20342;-52
2021/11/10 14:05:21;;;;;;;4.72;2.88;;;;;;;;;;6237955;23;20354;-55
2021/11/10 14:07:51;;;;;;;4.47;2.90;;;;;;;;;;6238300;23;20367;-47
2021/11/10 14:10:21;;;;;;;4.82;2.90;;;;;;;;;;6239572;23;20680;-46
2021/11/10 14:12:55;;;;;;;4.18;3.10;;;;;;;;;;6237404;23;20432;-47
2021/11/10 14:15:28;;;;;;;5.80;3.47;;;;;;;;;;6239217;22;20395;-54
2021/11/10 14:17:59;;;;;;;6.00;3.20;;;;;;;;;;6238307;23;20366;-58
2021/11/10 14:20:34;;;;;;;4.77;3.10;;;;;;;;;;6240147;23;20337;-56
2021/11/10 14:23:07;;;;;;;5.75;3.40;;;;;;;;;;6238178;23;20480;-55
2021/11/10 14:25:44;;;;;;;4.00;2.78;;;;;;;;;;6238340;23;20354;-59
2021/11/10 14:28:15;;;;;;;5.68;3.30;;;;;;;;;;6238404;23;20358;-55
2021/11/10 14:30:43;;;;;;;5.80;3.30;;;;;;;;;;6238856;23;20825;-51
2021/11/10 14:33:09;;;;;;;4.95;3.15;;;;;;;;;;6239781;23;20526;-54
2021/11/10 14:35:37;;;;;;;4.40;3.10;;;;;;;;;;6238827;23;20350;-52
2021/11/10 14:38:17;;;;;;;5.22;3.13;;;;;;;;;;6238170;23;20352;-47
2021/11/10 14:40:46;;;;;;;4.47;3.00;;;;;;;;;;6240024;22;20330;-53
2021/11/10 14:43:17;;;;;;;5.25;3.17;;;;;;;;;;6240659;22;20348;-52
2021/11/10 14:45:44;;;;;;;5.83;3.13;;;;;;;;;;6238747;23;20346;-49
2021/11/10 14:48:11;;;;;;;4.35;2.95;;;;;;;;;;6238698;23;20423;-50
2021/11/10 14:50:39;;;;;;;4.93;3.10;;;;;;;;;;6213528;23;20357;-50
2021/11/10 14:53:13;;;;;;;4.10;2.60;;;;;;;;;;6240209;22;20353;-46
2021/11/10 14:55:41;;;;;;;6.40;3.72;;;;;;;;;;6240358;23;20400;-51
2021/11/10 14:58:30;;;;;;;5.18;3.60;;;;;;;;;;6239639;23;20425;-44
2021/11/10 15:01:09;;;;;;;6.82;4.45;;;;;;;;;;6239969;23;20350;-49
2021/11/10 15:03:42;;;;;;;7.15;4.80;;;;;;;;;;6241512;22;20357;-49
2021/11/10 15:06:09;;;;;;;7.95;4.93;;;;;;;;;;6238981;23;20417;-57
2021/11/10 15:08:51;;;;;;;6.78;4.57;;;;;;;;;;6241462;23;20371;-56
2021/11/10 15:11:17;;;;;;;7.40;4.80;;;;;;;;;;6241098;23;20342;-55
2021/11/10 15:13:47;;;;;;;6.35;4.30;;;;;;;;;;6241514;22;20339;-56
2021/11/10 15:16:13;;;;;;;7.63;4.30;;;;;;;;;;6241403;22;20343;-53
2021/11/10 15:18:40;;;;;;;7.22;4.30;;;;;;;;;;6240686;23;20946;-50
2021/11/10 15:21:10;;;;;;;6.53;3.58;;;;;;;;;;6241342;22;20691;-52
2021/11/10 15:23:37;;;;;;;5.68;3.70;;;;;;;;;;6241261;23;20429;-48
2021/11/10 15:26:04;;;;;;;6.97;4.05;;;;;;;;;;6241155;22;20354;-51
2021/11/10 15:28:33;;;;;;;5.37;3.60;;;;;;;;;;6240571;23;20342;-48
2021/11/10 15:31:00;;;;;;;6.03;3.90;;;;;;;;;;6242350;23;20442;-57
2021/11/10 15:33:30;;;;;;;5.78;3.72;;;;;;;;;;6242045;23;20358;-52
2021/11/10 15:35:59;;;;;;;6.25;3.55;;;;;;;;;;6242468;23;20361;-51
2021/11/10 15:38:33;;;;;;;5.30;3.55;;;;;;;;;;6241664;23;20432;-52
2021/11/10 15:41:02;;;;;;;5.72;3.40;;;;;;;;;;6242074;23;20359;-53
2021/11/10 15:43:32;;;;;;;4.82;3.28;;;;;;;;;;6244110;22;20335;-52
2021/11/10 15:46:00;;;;;;;5.03;3.40;;;;;;;;;;6241855;23;20354;-56
2021/11/10 15:48:27;;;;;;;5.32;3.42;;;;;;;;;;6240857;23;20902;-52
2021/11/10 15:50:57;;;;;;;5.22;3.30;;;;;;;;;;6241761;23;20353;-52
2021/11/10 15:53:24;;;;;;;4.97;3.30;;;;;;;;;;6244184;22;20334;-54
2021/11/10 15:55:51;;;;;;;5.57;3.20;;;;;;;;;;6242360;23;20389;-52
2021/11/10 15:58:18;;;;;;;6.07;3.50;;;;;;;;;;6242020;23;20350;-54
2021/11/10 16:00:44;;;;;;;4.70;2.80;;;;;;;;;;6242659;23;20346;-52
2021/11/10 16:03:22;;;;;;;4.55;2.95;;;;;;;;;;6243384;22;20419;-53
2021/11/10 16:05:49;;;;;;;4.53;3.00;;;;;;;;;;6243142;22;20826;-53
2021/11/10 16:08:15;;;;;;;4.93;3.08;;;;;;;;;;6241456;23;20361;-54
2021/11/10 16:10:50;;;;;;;4.85;2.85;;;;;;;;;;6241294;23;20350;-55
2021/11/10 16:13:16;;;;;;;4.22;2.83;;;;;;;;;;6243270;22;20338;-55
2021/11/10 16:15:43;;;;;;;4.72;3.00;;;;;;;;;;6240991;23;20342;-52
2021/11/10 16:18:10;;;;;;;4.60;3.10;;;;;;;;;;6215669;23;20361;-55
2021/11/10 16:20:37;;;;;;;4.28;2.90;;;;;;;;;;6241143;23;20527;-53
2021/11/10 16:23:03;;;;;;;4.47;3.00;;;;;;;;;;6241273;23;20829;-51
2021/11/10 16:25:32;;;;;;;4.75;3.00;;;;;;;;;;6241577;23;20350;-53
2021/11/10 16:28:09;;;;;;;5.00;3.43;;;;;;;;;;6243091;23;20779;-52
2021/11/10 16:33:08;;;;;;;4.88;2.92;;;;;;;;;;6242590;22;20341;-53
2021/11/10 16:35:36;;;;;;;4.63;2.92;;;;;;;;;;6241082;23;20357;-52
2021/11/10 16:38:03;;;;;;;5.50;3.08;;;;;;;;;;6240138;23;20729;-54
2021/11/10 16:40:29;;;;;;;3.95;2.83;;;;;;;;;;6239426;23;20353;-54
2021/11/10 16:42:55;;;;;;;4.22;2.83;;;;;;;;;;6240677;23;20814;-57
2021/11/10 16:45:25;;;;;;;4.95;3.03;;;;;;;;;;6240435;23;20437;-56
2021/11/10 16:47:51;;;;;;;3.58;2.80;;;;;;;;;;6215235;23;20354;-58
2021/11/10 16:50:17;;;;;;;4.10;2.80;;;;;;;;;;6242025;23;20334;-51
2021/11/10 16:52:43;;;;;;;4.03;2.90;;;;;;;;;;6241242;23;20420;-49
2021/11/10 16:55:11;;;;;;;4.27;2.90;;;;;;;;;;6238265;23;21453;-59
2021/11/10 16:57:50;;;;;;;8.43;5.65;;;;;;;;;;6237370;23;20464;-59
2021/11/10 17:00:17;;;;;;;10.88;7.63;;;;;;;;;;6239013;22;20461;-47
2021/11/10 17:02:43;;;;;;;10.63;7.45;;;;;;;;;;6237535;23;20404;-52
2021/11/10 17:05:11;;;;;;;11.70;6.90;;;;;;;;;;6240078;23;21158;-47
2021/11/10 17:07:37;;;;;;;10.85;7.25;;;;;;;;;;6237724;23;20885;-47
2021/11/10 17:10:04;;;;;;;11.77;7.80;;;;;;;;;;6237554;23;20338;-59
2021/11/10 17:12:30;;;;;;;11.75;7.80;;;;;;;;;;6236593;23;20364;-59
2021/11/10 17:14:56;;;;;;;11.70;8.48;;;;;;;;;;6237502;23;20353;-57
2021/11/10 17:17:25;;;;;;;11.23;8.23;;;;;;;;;;6239411;23;20506;-59
2021/11/10 17:19:52;;;;;;;11.93;8.40;;;;;;;;;;6239095;23;20411;-54
2021/11/10 17:22:18;;;;;;;12.82;9.63;;;;;;;;;;6237038;23;20468;-56
2021/11/10 17:24:44;;;;;;;14.23;10.45;;;;;;;;;;6239366;23;20338;-61
2021/11/10 17:27:10;;;;;;;12.95;10.48;;;;;;;;;;6239643;23;20826;-49
2021/11/10 17:29:36;;;;;;;13.73;9.82;;;;;;;;;;6237892;23;20377;-50
2021/11/10 17:32:03;;;;;;;11.63;9.82;;;;;;;;;;6239483;23;20795;-49
2021/11/10 17:34:29;;;;;;;13.20;9.60;;;;;;;;;;6237722;23;20350;-52
2021/11/10 17:36:55;;;;;;;14.38;9.90;;;;;;;;;;6238911;23;20338;-52
2021/11/10 17:39:21;;;;;;;13.13;9.50;;;;;;;;;;6212296;23;20374;-53
2021/11/10 17:41:48;;;;;;;13.18;9.65;;;;;;;;;;6239136;23;20342;-48
2021/11/10 17:44:14;;;;;;;14.20;9.85;;;;;;;;;;6237897;23;20346;-49
2021/11/10 17:46:40;;;;;;;11.90;9.55;;;;;;;;;;6239334;23;20330;-52
2021/11/10 17:49:07;;;;;;;14.23;9.88;;;;;;;;;;6238049;23;20350;-49
2021/11/10 17:51:33;;;;;;;12.35;9.60;;;;;;;;;;6239497;22;20357;-48
2021/11/10 17:54:02;;;;;;;13.90;9.77;;;;;;;;;;6239516;23;20448;-55
2021/11/10 17:56:31;;;;;;;12.48;8.98;;;;;;;;;;6237255;23;20497;-46
2021/11/10 17:59:00;;;;;;;12.48;8.77;;;;;;;;;;6237635;23;20446;-47
2021/11/10 18:01:26;;;;;;;15.40;9.23;;;;;;;;;;6235604;23;20350;-46
2021/11/10 18:03:52;;;;;;;12.38;8.50;;;;;;;;;;6237297;23;20607;-45
2021/11/10 18:06:19;;;;;;;11.68;8.85;;;;;;;;;;6235166;23;20346;-44
2021/11/10 18:08:47;;;;;;;13.52;9.98;;;;;;;;;;6237325;23;20333;-45
2021/11/10 18:11:13;;;;;;;13.93;9.50;;;;;;;;;;6234313;23;20432;-48
2021/11/10 18:13:39;;;;;;;11.32;7.97;;;;;;;;;;6237237;23;21925;-47
2021/11/10 18:16:05;;;;;;;10.30;7.68;;;;;;;;;;6239084;23;20415;-46
2021/11/10 18:18:31;;;;;;;14.70;10.73;;;;;;;;;;6238200;23;20461;-47
2021/11/10 18:21:00;;;;;;;16.77;12.90;;;;;;;;;;6239208;22;20370;-44
2021/11/10 18:23:29;;;;;;;22.30;19.20;;;;;;;;;;6237143;23;20453;-46
2021/11/10 18:25:55;;;;;;;27.02;22.95;;;;;;;;;;6237410;23;20786;-45
2021/11/10 18:28:21;;;;;;;25.95;20.85;;;;;;;;;;6238976;23;20339;-47
2021/11/10 18:30:47;;;;;;;23.02;20.17;;;;;;;;;;6239116;23;20814;-47
2021/11/10 18:33:14;;;;;;;23.98;20.23;;;;;;;;;;6238560;23;20414;-47
2021/11/10 18:35:45;;;;;;;21.70;19.27;;;;;;;;;;6241224;23;20354;-47
2021/11/10 18:38:11;;;;;;;25.33;20.95;;;;;;;;;;6239288;23;20381;-47
2021/11/10 18:40:37;;;;;;;27.63;22.50;;;;;;;;;;6239452;23;20799;-45
2021/11/10 18:43:04;;;;;;;25.15;21.85;;;;;;;;;;6239575;23;20342;-47
2021/11/10 18:45:30;;;;;;;28.47;23.50;;;;;;;;;;6241627;23;20373;-47
2021/11/10 18:47:57;;;;;;;26.77;23.25;;;;;;;;;;6241135;23;20346;-46
2021/11/10 18:50:30;;;;;;;27.85;22.40;;;;;;;;;;6241538;22;20399;-45
2021/11/10 18:52:56;;;;;;;23.85;21.02;;;;;;;;;;6241379;22;20477;-45
2021/11/10 18:55:25;;;;;;;23.50;20.30;;;;;;;;;;6241323;22;20335;-45
2021/11/10 18:57:54;;;;;;;24.23;19.80;;;;;;;;;;6240149;23;20410;-46
2021/11/10 19:00:27;;;;;;;23.83;19.27;;;;;;;;;;6240440;23;20388;-50
2021/11/10 19:03:07;;;;;;;23.55;18.77;;;;;;;;;;6240755;22;20445;-47
2021/11/10 19:05:37;;;;;;;21.70;18.30;;;;;;;;;;6240737;22;20464;-46
2021/11/10 19:08:11;;;;;;;22.58;18.52;;;;;;;;;;6238722;23;20717;-46
2021/11/10 19:16:13;;;;;;;21.40;19.13;;;;;;;;;;6240616;23;20703;-48
2021/11/10 19:21:17;;;;;;;32.38;28.85;;;;;;;;;;6240350;22;20493;-47
2021/11/10 19:23:43;;;;;;;36.00;30.75;;;;;;;;;;6238575;23;20350;-46
2021/11/10 19:26:10;;;;;;;35.92;31.90;;;;;;;;;;6238333;23;20350;-46
2021/11/10 19:28:38;;;;;;;36.65;32.65;;;;;;;;;;6238278;23;20346;-47
2021/11/10 19:31:04;;;;;;;40.63;33.70;;;;;;;;;;6238380;23;20351;-45
2021/11/10 19:33:33;;;;;;;39.42;35.28;;;;;;;;;;6239754;23;20330;-45
2021/11/10 19:35:59;;;;;;;40.22;35.60;;;;;;;;;;6240588;23;20350;-48
2021/11/10 19:38:25;;;;;;;39.30;34.83;;;;;;;;;;6240230;23;20332;-46
2021/11/10 19:40:52;;;;;;;37.72;33.78;;;;;;;;;;6240962;23;20414;-46
2021/11/10 19:43:21;;;;;;;37.75;33.85;;;;;;;;;;6238972;23;20410;-50
2021/11/10 19:45:52;;;;;;;39.40;35.25;;;;;;;;;;6238854;23;20346;-48
2021/11/10 19:48:18;;;;;;;37.97;33.97;;;;;;;;;;6240758;22;20402;-46
2021/11/10 19:50:44;;;;;;;41.75;35.17;;;;;;;;;;6238859;23;20748;-47
2021/11/10 19:53:11;;;;;;;39.00;34.65;;;;;;;;;;6240651;23;20616;-48
2021/11/10 19:55:39;;;;;;;36.95;32.95;;;;;;;;;;6239103;23;20795;-45
2021/11/10 19:58:08;;;;;;;35.70;31.80;;;;;;;;;;6238579;23;20342;-47
2021/11/10 20:00:39;;;;;;;34.63;30.08;;;;;;;;;;6238774;23;20381;-47
2021/11/10 20:03:06;;;;;;;32.92;29.05;;;;;;;;;;6238523;23;20354;-50
2021/11/10 20:05:32;;;;;;;31.90;26.90;;;;;;;;;;6238940;23;20401;-50
2021/11/10 20:07:58;;;;;;;28.73;23.80;;;;;;;;;;6240754;23;20844;-47
2021/11/10 20:10:27;;;;;;;29.35;23.73;;;;;;;;;;6240726;23;20404;-49
2021/11/10 20:12:54;;;;;;;29.92;23.58;;;;;;;;;;6238729;23;20429;-49
2021/11/10 20:15:25;;;;;;;25.70;22.80;;;;;;;;;;6238885;23;20429;-51
2021/11/10 20:17:51;;;;;;;27.55;22.80;;;;;;;;;;6239855;22;20369;-47
2021/11/10 20:20:20;;;;;;;25.83;21.88;;;;;;;;;;6241247;23;20320;-47
2021/11/10 20:22:47;;;;;;;24.33;20.37;;;;;;;;;;6240592;22;20904;-49
2021/11/10 20:25:14;;;;;;;23.88;19.30;;;;;;;;;;6238824;23;20358;-46
2021/11/10 20:27:47;;;;;;;23.63;18.50;;;;;;;;;;6238272;23;20512;-47
2021/11/10 20:30:15;;;;;;;22.65;19.38;;;;;;;;;;6238597;23;20385;-46
2021/11/10 20:32:47;;;;;;;22.75;19.00;;;;;;;;;;6240454;23;20344;-47
2021/11/10 20:35:17;;;;;;;22.17;17.90;;;;;;;;;;6240903;22;20863;-46
2021/11/10 20:37:43;;;;;;;22.48;17.90;;;;;;;;;;6240178;22;20400;-47
2021/11/10 20:40:13;;;;;;;22.85;18.42;;;;;;;;;;6238564;23;20392;-46
